Time;durP1;ratioP1;P1;durP2;ratioP2;P2;SDS_P1;SDS_P2;PMS_P1;PMS_P2;Temp;Humidity;BMP_temperature;BMP_pressure;BME280_temperature;BME280_humidity;BME280_pressure;Samples;Min_cycle;Max_cycle;Signal;HPM_P1;HPM_P2
2022/11/08 00:01:36;;;;;;;;;;;3.90;99.90;;;;;;5101869;28;19982;-83
2022/11/08 00:04:02;;;;;;;;;;;3.90;99.90;;;;;;5094174;28;20019;-82
2022/11/08 00:14:41;;;;;;;;;;;3.60;99.90;;;;;;5097108;28;20032;-82
2022/11/08 00:17:07;;;;;;;;;;;3.40;99.90;;;;;;5099489;28;19938;-82
2022/11/08 00:19:33;;;;;;;;;;;3.50;99.90;;;;;;5095813;28;19916;-81
2022/11/08 00:21:58;;;;;;;;;;;3.60;99.90;;;;;;5097855;28;19927;-82
2022/11/08 00:24:24;;;;;;;;;;;3.60;99.90;;;;;;5097875;28;19912;-82
2022/11/08 00:26:49;;;;;;;;;;;3.50;99.90;;;;;;5091382;28;20394;-83
2022/11/08 00:29:15;;;;;;;;;;;3.50;99.90;;;;;;5108146;27;20317;-81
2022/11/08 00:31:41;;;;;;;;;;;3.40;99.90;;;;;;5103138;28;19916;-82
2022/11/08 00:34:07;;;;;;;;;;;3.40;99.90;;;;;;5096359;28;19920;-82
2022/11/08 00:36:32;;;;;;;;;;;3.40;99.90;;;;;;5093715;28;19969;-82
2022/11/08 00:38:58;;;;;;;;;;;3.40;99.90;;;;;;5102203;28;20018;-82
2022/11/08 00:41:23;;;;;;;;;;;3.30;99.90;;;;;;5096908;28;19920;-82
2022/11/08 00:43:49;;;;;;;;;;;3.30;99.90;;;;;;5093561;28;19920;-82
2022/11/08 00:46:14;;;;;;;;;;;3.30;99.90;;;;;;5105545;28;19927;-82
2022/11/08 00:48:40;;;;;;;;;;;3.30;99.90;;;;;;5100538;28;20026;-82
2022/11/08 00:51:06;;;;;;;;;;;3.20;99.90;;;;;;5080436;28;19916;-82
2022/11/08 00:53:32;;;;;;;;;;;3.20;99.90;;;;;;5105936;28;19955;-82
2022/11/08 00:56:01;;;;;;;;;;;3.20;99.90;;;;;;5100357;28;20009;-82
2022/11/08 00:58:27;;;;;;;;;;;3.20;99.90;;;;;;5095049;28;19916;-82
2022/11/08 01:00:53;;;;;;;;;;;3.30;99.90;;;;;;5101168;28;20257;-82
2022/11/08 01:03:18;;;;;;;;;;;3.00;99.90;;;;;;5101139;28;19916;-82
2022/11/08 01:05:44;;;;;;;;;;;3.00;99.90;;;;;;5071933;28;19920;-82
2022/11/08 01:08:10;;;;;;;;;;;3.00;99.90;;;;;;5097293;28;20596;-82
2022/11/08 01:10:36;;;;;;;;;;;3.10;99.90;;;;;;5096320;28;20345;-82
2022/11/08 01:13:02;;;;;;;;;;;3.10;99.90;;;;;;5096275;28;20268;-82
2022/11/08 01:15:27;;;;;;;;;;;3.10;99.90;;;;;;5103797;28;20006;-82
2022/11/08 01:17:53;;;;;;;;;;;3.00;99.90;;;;;;5098587;28;20020;-82
2022/11/08 01:20:18;;;;;;;;;;;3.10;99.90;;;;;;5092777;28;19916;-82
2022/11/08 01:22:44;;;;;;;;;;;3.20;99.90;;;;;;5101648;28;20395;-82
2022/11/08 01:25:09;;;;;;;;;;;3.20;99.90;;;;;;5096103;28;19930;-82
2022/11/08 01:27:35;;;;;;;;;;;3.20;99.90;;;;;;5091671;28;19920;-82
2022/11/08 01:30:00;;;;;;;;;;;3.20;99.90;;;;;;5103700;28;19988;-82
2022/11/08 01:32:26;;;;;;;;;;;3.10;99.90;;;;;;5096973;28;19926;-82
2022/11/08 01:34:51;;;;;;;;;;;3.10;99.90;;;;;;5093880;28;19923;-81
2022/11/08 01:37:16;;;;;;;;;;;3.20;99.90;;;;;;5096248;28;20367;-82
2022/11/08 01:39:42;;;;;;;;;;;3.20;99.90;;;;;;5094274;28;19920;-82
2022/11/08 01:42:07;;;;;;;;;;;3.40;99.90;;;;;;5094604;28;20018;-82
2022/11/08 01:44:33;;;;;;;;;;;3.30;99.90;;;;;;5103638;28;19924;-83
2022/11/08 01:46:58;;;;;;;;;;;3.30;99.90;;;;;;5100308;28;19993;-83
2022/11/08 01:49:50;;;;;;;;;;;3.30;99.90;;;;;;5091882;28;19916;-82
2022/11/08 01:52:25;;;;;;;;;;;3.20;99.90;;;;;;5090697;28;19968;-82
2022/11/08 01:54:57;;;;;;;;;;;3.10;99.90;;;;;;5096747;28;19916;-82
2022/11/08 01:57:33;;;;;;;;;;;3.00;99.90;;;;;;5090695;28;20291;-82
2022/11/08 02:00:00;;;;;;;;;;;3.00;99.90;;;;;;5097682;28;19920;-82
2022/11/08 02:02:26;;;;;;;;;;;2.90;99.90;;;;;;5098411;28;19920;-82
2022/11/08 02:04:52;;;;;;;;;;;3.00;99.90;;;;;;5096109;28;20429;-82
2022/11/08 02:07:17;;;;;;;;;;;3.00;99.90;;;;;;5098696;28;19919;-82
2022/11/08 02:09:44;;;;;;;;;;;3.00;99.90;;;;;;5098215;28;20019;-82
2022/11/08 02:12:10;;;;;;;;;;;3.00;99.90;;;;;;5095036;28;19922;-82
2022/11/08 02:14:36;;;;;;;;;;;3.00;99.90;;;;;;5101882;28;19919;-82
2022/11/08 02:17:02;;;;;;;;;;;3.00;99.90;;;;;;5101543;28;19923;-82
2022/11/08 02:19:39;;;;;;;;;;;3.10;99.90;;;;;;5095575;28;20414;-81
2022/11/08 02:22:08;;;;;;;;;;;3.10;99.90;;;;;;5098357;28;20359;-82
2022/11/08 02:24:34;;;;;;;;;;;3.00;99.90;;;;;;5099904;28;20349;-82
2022/11/08 02:27:00;;;;;;;;;;;3.00;99.90;;;;;;5095694;28;20053;-82
2022/11/08 02:29:28;;;;;;;;;;;3.00;99.90;;;;;;5097468;28;19916;-82
2022/11/08 02:31:54;;;;;;;;;;;3.10;99.90;;;;;;5100147;28;19995;-82
2022/11/08 02:34:23;;;;;;;;;;;3.00;99.90;;;;;;5090609;28;19916;-82
2022/11/08 02:36:48;;;;;;;;;;;2.80;99.90;;;;;;5096917;28;20275;-82
2022/11/08 02:39:14;;;;;;;;;;;2.80;99.90;;;;;;5096592;28;19941;-82
2022/11/08 02:41:39;;;;;;;;;;;2.90;99.90;;;;;;5097488;28;19920;-82
2022/11/08 02:44:05;;;;;;;;;;;2.90;99.90;;;;;;5105420;28;19923;-82
2022/11/08 02:46:30;;;;;;;;;;;2.90;99.90;;;;;;5111508;28;19959;-82
2022/11/08 02:48:56;;;;;;;;;;;2.90;99.90;;;;;;5101050;28;19916;-83
2022/11/08 02:51:21;;;;;;;;;;;2.90;99.90;;;;;;5096797;28;20375;-82
2022/11/08 02:53:47;;;;;;;;;;;3.00;99.90;;;;;;5104682;28;19912;-82
2022/11/08 02:56:13;;;;;;;;;;;2.90;99.90;;;;;;5101613;28;20426;-83
2022/11/08 02:58:38;;;;;;;;;;;2.90;99.90;;;;;;5095285;28;19982;-83
2022/11/08 03:01:04;;;;;;;;;;;2.80;99.90;;;;;;5103093;28;19927;-82
2022/11/08 03:03:29;;;;;;;;;;;2.70;99.90;;;;;;5099944;28;19923;-82
2022/11/08 03:05:55;;;;;;;;;;;2.70;99.90;;;;;;5076541;28;19962;-82
2022/11/08 03:08:21;;;;;;;;;;;2.70;99.90;;;;;;5108793;28;19911;-83
2022/11/08 03:10:46;;;;;;;;;;;2.70;99.90;;;;;;5096160;28;19956;-82
2022/11/08 03:13:12;;;;;;;;;;;2.80;99.90;;;;;;5096594;28;20010;-82
2022/11/08 03:15:37;;;;;;;;;;;2.60;99.90;;;;;;5103237;28;19923;-83
2022/11/08 03:18:03;;;;;;;;;;;2.60;99.90;;;;;;5094529;28;20626;-82
2022/11/08 03:20:28;;;;;;;;;;;2.60;99.90;;;;;;5098190;28;19916;-82
2022/11/08 03:23:01;;;;;;;;;;;2.60;99.90;;;;;;5098083;28;19927;-82
2022/11/08 03:25:26;;;;;;;;;;;2.60;99.90;;;;;;5099641;28;19923;-82
2022/11/08 03:27:52;;;;;;;;;;;2.60;99.90;;;;;;5094127;28;19916;-82
2022/11/08 03:30:17;;;;;;;;;;;2.60;99.90;;;;;;5098881;28;19955;-82
2022/11/08 03:32:45;;;;;;;;;;;2.50;99.90;;;;;;5101921;28;19920;-82
2022/11/08 03:35:11;;;;;;;;;;;2.50;99.90;;;;;;5093858;28;19991;-82
2022/11/08 03:37:37;;;;;;;;;;;2.50;99.90;;;;;;5116890;27;19916;-82
2022/11/08 03:40:03;;;;;;;;;;;2.30;99.90;;;;;;5102324;28;19927;-83
2022/11/08 03:42:28;;;;;;;;;;;2.10;99.90;;;;;;5095363;28;19922;-82
2022/11/08 03:44:53;;;;;;;;;;;2.20;99.90;;;;;;5106812;28;20010;-83
2022/11/08 03:47:19;;;;;;;;;;;2.30;99.90;;;;;;5097203;28;19969;-83
2022/11/08 03:49:46;;;;;;;;;;;2.10;99.90;;;;;;5095367;28;20392;-82
2022/11/08 03:52:12;;;;;;;;;;;2.00;99.90;;;;;;5104723;28;19959;-83
2022/11/08 03:54:37;;;;;;;;;;;2.00;99.90;;;;;;5102853;28;19920;-83
2022/11/08 03:57:03;;;;;;;;;;;2.10;99.90;;;;;;5098354;28;19927;-82
2022/11/08 03:59:28;;;;;;;;;;;2.10;99.90;;;;;;5102927;28;20344;-83
2022/11/08 04:01:54;;;;;;;;;;;2.10;99.90;;;;;;5087534;28;19916;-82
2022/11/08 04:04:19;;;;;;;;;;;1.90;99.90;;;;;;5091760;28;19991;-83
2022/11/08 04:06:45;;;;;;;;;;;1.90;99.90;;;;;;5094854;28;20411;-82
2022/11/08 04:09:10;;;;;;;;;;;2.00;99.90;;;;;;5079405;28;20607;-82
2022/11/08 04:17:04;;;;;;;;;;;2.00;99.90;;;;;;5096036;28;20053;-82
2022/11/08 04:22:14;;;;;;;;;;;2.00;99.90;;;;;;5096832;28;20352;-82
2022/11/08 04:24:40;;;;;;;;;;;1.90;99.90;;;;;;5098826;28;19916;-82
2022/11/08 04:27:05;;;;;;;;;;;1.70;99.90;;;;;;5096585;28;19927;-83
2022/11/08 04:29:31;;;;;;;;;;;1.80;99.90;;;;;;5096331;28;20422;-82
2022/11/08 04:31:56;;;;;;;;;;;1.80;99.90;;;;;;5100620;28;19923;-82
2022/11/08 04:34:22;;;;;;;;;;;1.90;99.90;;;;;;5092972;28;19992;-82
2022/11/08 04:36:47;;;;;;;;;;;1.90;99.90;;;;;;5093688;28;19928;-82
2022/11/08 04:39:13;;;;;;;;;;;1.90;99.90;;;;;;5095899;28;20382;-82
2022/11/08 04:41:38;;;;;;;;;;;1.90;99.90;;;;;;5096495;28;20295;-83
2022/11/08 04:44:04;;;;;;;;;;;2.00;99.90;;;;;;5089501;28;19919;-82
2022/11/08 04:46:29;;;;;;;;;;;2.00;99.90;;;;;;5096974;28;20172;-82
2022/11/08 04:48:56;;;;;;;;;;;1.90;99.90;;;;;;5093419;28;19923;-81
2022/11/08 04:51:28;;;;;;;;;;;2.10;99.90;;;;;;5080338;28;19919;-82
2022/11/08 04:53:55;;;;;;;;;;;2.10;99.90;;;;;;5100450;28;20363;-82
2022/11/08 04:56:21;;;;;;;;;;;2.00;99.90;;;;;;5095530;28;19966;-82
2022/11/08 04:58:48;;;;;;;;;;;2.10;99.90;;;;;;5094449;28;20084;-82
2022/11/08 05:01:14;;;;;;;;;;;2.00;99.90;;;;;;5093615;28;20077;-82
2022/11/08 05:03:40;;;;;;;;;;;2.00;99.90;;;;;;5092426;28;20235;-82
2022/11/08 05:06:09;;;;;;;;;;;1.90;99.90;;;;;;5101574;28;20386;-82
2022/11/08 05:08:35;;;;;;;;;;;1.90;99.90;;;;;;5096404;28;19923;-84
2022/11/08 05:11:01;;;;;;;;;;;1.90;99.90;;;;;;5094621;28;19920;-82
2022/11/08 05:13:26;;;;;;;;;;;1.90;99.90;;;;;;5094711;28;19974;-83
2022/11/08 05:15:52;;;;;;;;;;;1.80;99.90;;;;;;5104428;28;20434;-83
2022/11/08 05:18:17;;;;;;;;;;;1.80;99.90;;;;;;5098912;28;19924;-83
2022/11/08 05:23:27;;;;;;;;;;;1.80;99.90;;;;;;5102225;28;20488;-84
2022/11/08 05:25:53;;;;;;;;;;;1.80;99.90;;;;;;5096226;28;20003;-85
2022/11/08 05:28:19;;;;;;;;;;;1.80;99.90;;;;;;5095335;28;20029;-84
2022/11/08 05:30:50;;;;;;;;;;;1.70;99.90;;;;;;5077965;28;19920;-84
2022/11/08 05:33:16;;;;;;;;;;;1.70;99.90;;;;;;5096559;28;20007;-85
2022/11/08 05:35:41;;;;;;;;;;;1.80;99.90;;;;;;5088215;28;20034;-83
2022/11/08 05:38:07;;;;;;;;;;;1.80;99.90;;;;;;5101023;28;19934;-93
2022/11/08 05:40:33;;;;;;;;;;;1.90;99.90;;;;;;5089921;28;19912;-85
2022/11/08 05:42:58;;;;;;;;;;;1.90;99.90;;;;;;5097657;28;19933;-84
2022/11/08 05:45:24;;;;;;;;;;;1.90;99.90;;;;;;5095800;28;19966;-85
2022/11/08 05:47:49;;;;;;;;;;;1.80;99.90;;;;;;5095257;28;19973;-85
2022/11/08 05:50:15;;;;;;;;;;;1.70;99.90;;;;;;5092615;28;20011;-84
2022/11/08 05:52:40;;;;;;;;;;;1.70;99.90;;;;;;5100625;28;19961;-85
2022/11/08 05:55:06;;;;;;;;;;;1.70;99.90;;;;;;5101026;28;19927;-85
2022/11/08 05:57:31;;;;;;;;;;;1.60;99.90;;;;;;5077917;28;19930;-85
2022/11/08 05:59:57;;;;;;;;;;;1.60;99.90;;;;;;5106264;28;19919;-85
2022/11/08 06:02:22;;;;;;;;;;;1.60;99.90;;;;;;5097512;28;19916;-84
2022/11/08 06:04:48;;;;;;;;;;;1.50;99.90;;;;;;5095687;28;19955;-85
2022/11/08 06:07:13;;;;;;;;;;;1.50;99.90;;;;;;5095348;28;19916;-85
2022/11/08 06:09:39;;;;;;;;;;;1.50;99.90;;;;;;5095143;28;19959;-85
2022/11/08 06:12:05;;;;;;;;;;;1.60;99.90;;;;;;5090560;28;20357;-85
2022/11/08 06:14:30;;;;;;;;;;;1.60;99.90;;;;;;5103825;28;19922;-85
2022/11/08 06:16:56;;;;;;;;;;;1.60;99.90;;;;;;5101589;28;19920;-86
2022/11/08 06:19:21;;;;;;;;;;;1.60;99.90;;;;;;5090803;28;19920;-85
2022/11/08 06:21:47;;;;;;;;;;;1.60;99.90;;;;;;5088849;28;20199;-86
2022/11/08 06:24:14;;;;;;;;;;;1.60;99.90;;;;;;5091321;28;19959;-85
2022/11/08 06:26:39;;;;;;;;;;;1.50;99.90;;;;;;5070150;28;19942;-86
2022/11/08 06:29:05;;;;;;;;;;;1.30;99.90;;;;;;5083008;28;19913;-86
2022/11/08 06:31:30;;;;;;;;;;;1.40;99.90;;;;;;5071289;28;19998;-86
2022/11/08 06:33:56;;;;;;;;;;;1.40;99.90;;;;;;5073900;28;19972;-85
2022/11/08 06:36:21;;;;;;;;;;;1.40;99.90;;;;;;5075585;28;19916;-86
2022/11/08 06:38:47;;;;;;;;;;;1.40;99.90;;;;;;5089882;28;20005;-86
2022/11/08 06:41:15;;;;;;;;;;;1.50;99.90;;;;;;5086109;28;19920;-86
2022/11/08 06:43:41;;;;;;;;;;;1.40;99.90;;;;;;5092859;28;19916;-86
2022/11/08 06:46:06;;;;;;;;;;;1.50;99.90;;;;;;5100267;28;19934;-84
2022/11/08 06:48:32;;;;;;;;;;;1.50;99.90;;;;;;5089914;28;19920;-83
2022/11/08 06:50:57;;;;;;;;;;;1.50;99.90;;;;;;5081251;28;19931;-83
2022/11/08 06:53:22;;;;;;;;;;;1.60;99.90;;;;;;5070925;28;19947;-86
2022/11/08 06:55:48;;;;;;;;;;;1.60;99.90;;;;;;5073891;28;19924;-84
2022/11/08 06:58:13;;;;;;;;;;;1.60;99.90;;;;;;5097902;28;20375;-85
2022/11/08 07:00:39;;;;;;;;;;;1.70;99.90;;;;;;5100223;28;19943;-86
2022/11/08 07:03:04;;;;;;;;;;;1.80;99.90;;;;;;5079088;28;20292;-86
2022/11/08 07:05:31;;;;;;;;;;;1.90;99.90;;;;;;5095634;28;20389;-78
2022/11/08 07:07:57;;;;;;;;;;;2.00;99.90;;;;;;5100894;28;19931;-85
2022/11/08 07:10:24;;;;;;;;;;;2.10;99.90;;;;;;5093057;28;20010;-90
2022/11/08 07:12:57;;;;;;;;;;;2.10;99.90;;;;;;5099858;28;20354;-93
2022/11/08 07:15:23;;;;;;;;;;;2.10;99.90;;;;;;5096136;28;20408;-89
2022/11/08 07:17:48;;;;;;;;;;;2.10;99.90;;;;;;5099640;28;19923;-86
2022/11/08 07:20:14;;;;;;;;;;;2.10;99.90;;;;;;5090634;28;19912;-90
2022/11/08 07:22:39;;;;;;;;;;;2.10;99.90;;;;;;5094454;28;20374;-86
2022/11/08 07:25:05;;;;;;;;;;;2.10;99.90;;;;;;5094240;28;20382;-84
2022/11/08 07:27:30;;;;;;;;;;;2.30;99.90;;;;;;5093275;28;19963;-89
2022/11/08 07:29:56;;;;;;;;;;;2.30;99.90;;;;;;5102085;28;19947;-87
2022/11/08 07:32:21;;;;;;;;;;;2.40;99.90;;;;;;5094964;28;20429;-89
2022/11/08 07:34:47;;;;;;;;;;;2.40;99.90;;;;;;5098758;28;19973;-88
2022/11/08 07:37:12;;;;;;;;;;;2.40;99.90;;;;;;5081133;28;19923;-85
2022/11/08 07:39:38;;;;;;;;;;;2.60;99.90;;;;;;5083046;28;20542;-86
2022/11/08 07:42:03;;;;;;;;;;;2.40;99.90;;;;;;5097382;28;19923;-87
2022/11/08 07:44:29;;;;;;;;;;;2.60;99.90;;;;;;5101823;28;20361;-86
2022/11/08 07:46:54;;;;;;;;;;;2.80;99.90;;;;;;5103208;28;19927;-87
2022/11/08 07:49:20;;;;;;;;;;;3.10;99.90;;;;;;5096248;28;19930;-86
2022/11/08 07:51:45;;;;;;;;;;;3.10;99.90;;;;;;5102457;28;20427;-85
2022/11/08 07:54:11;;;;;;;;;;;3.20;99.90;;;;;;5097627;28;19915;-86
2022/11/08 07:56:36;;;;;;;;;;;3.30;99.90;;;;;;5094807;28;19939;-89
2022/11/08 07:59:02;;;;;;;;;;;3.40;99.90;;;;;;5084399;28;19969;-83
2022/11/08 08:01:28;;;;;;;;;;;3.40;99.90;;;;;;5098035;28;20103;-83
2022/11/08 08:03:53;;;;;;;;;;;3.50;99.90;;;;;;5080360;28;19984;-87
2022/11/08 08:06:19;;;;;;;;;;;3.60;99.90;;;;;;5097080;28;19916;-86
2022/11/08 08:08:44;;;;;;;;;;;3.80;99.90;;;;;;5102609;28;19916;-88
2022/11/08 08:11:10;;;;;;;;;;;4.00;99.90;;;;;;5093050;28;20016;-86
2022/11/08 08:13:35;;;;;;;;;;;4.10;99.90;;;;;;5083133;28;20608;-87
2022/11/08 08:16:01;;;;;;;;;;;4.20;99.90;;;;;;5094037;28;20383;-87
2022/11/08 08:18:27;;;;;;;;;;;4.30;99.90;;;;;;5087133;28;20628;-87
2022/11/08 08:20:53;;;;;;;;;;;4.40;99.90;;;;;;5099244;28;19912;-89
2022/11/08 08:23:18;;;;;;;;;;;4.50;99.90;;;;;;5102424;28;20429;-88
2022/11/08 08:25:43;;;;;;;;;;;4.70;99.90;;;;;;5099351;28;19920;-86
2022/11/08 08:28:09;;;;;;;;;;;4.90;99.90;;;;;;5096209;28;19919;-84
2022/11/08 08:30:35;;;;;;;;;;;5.00;99.90;;;;;;5100719;28;20348;-83
2022/11/08 08:33:03;;;;;;;;;;;5.10;99.90;;;;;;5098258;28;19920;-84
2022/11/08 08:35:29;;;;;;;;;;;5.00;99.90;;;;;;5098991;28;19968;-85
2022/11/08 08:38:02;;;;;;;;;;;5.10;99.90;;;;;;5100473;28;19927;-83
2022/11/08 08:40:28;;;;;;;;;;;5.30;99.90;;;;;;5096622;28;19958;-84
2022/11/08 08:42:53;;;;;;;;;;;5.60;99.90;;;;;;5087846;28;20475;-84
2022/11/08 08:45:19;;;;;;;;;;;5.90;99.90;;;;;;5081917;28;19955;-84
2022/11/08 08:47:49;;;;;;;;;;;6.20;99.90;;;;;;5099021;28;20410;-82
2022/11/08 08:50:14;;;;;;;;;;;6.30;99.90;;;;;;5096918;28;19999;-83
2022/11/08 08:52:40;;;;;;;;;;;6.70;99.90;;;;;;5101938;28;19920;-81
2022/11/08 08:55:05;;;;;;;;;;;6.80;99.90;;;;;;5100738;28;20038;-85
2022/11/08 08:57:32;;;;;;;;;;;6.90;99.90;;;;;;5078195;28;20426;-84
2022/11/08 08:59:58;;;;;;;;;;;6.90;99.90;;;;;;5104256;28;19923;-85
2022/11/08 09:02:23;;;;;;;;;;;7.00;99.90;;;;;;5099422;28;20362;-84
2022/11/08 09:04:49;;;;;;;;;;;7.20;99.90;;;;;;5092774;28;20534;-85
2022/11/08 09:07:15;;;;;;;;;;;7.20;99.90;;;;;;5104076;28;19969;-87
2022/11/08 09:09:40;;;;;;;;;;;7.30;99.90;;;;;;5095137;28;19965;-83
2022/11/08 09:12:06;;;;;;;;;;;7.30;99.90;;;;;;5096215;28;19969;-83
2022/11/08 09:14:31;;;;;;;;;;;7.60;99.90;;;;;;5102715;28;19920;-85
2022/11/08 09:16:57;;;;;;;;;;;7.80;99.90;;;;;;5115505;27;20022;-83
2022/11/08 09:19:22;;;;;;;;;;;7.90;99.90;;;;;;5095145;28;19915;-85
2022/11/08 09:21:48;;;;;;;;;;;7.90;99.90;;;;;;5104776;28;19924;-82
2022/11/08 09:24:13;;;;;;;;;;;8.10;99.90;;;;;;5101497;28;19920;-82
2022/11/08 09:26:39;;;;;;;;;;;8.10;99.90;;;;;;5098277;28;19920;-82
2022/11/08 09:29:04;;;;;;;;;;;8.30;99.90;;;;;;5095728;28;19916;-84
2022/11/08 09:31:30;;;;;;;;;;;8.40;99.90;;;;;;5081827;28;20386;-82
2022/11/08 09:33:55;;;;;;;;;;;8.60;99.90;;;;;;5096516;28;19962;-82
2022/11/08 09:36:21;;;;;;;;;;;8.90;98.60;;;;;;5097183;28;19920;-82
2022/11/08 09:38:46;;;;;;;;;;;9.00;96.00;;;;;;5089357;28;19927;-81
2022/11/08 09:41:18;;;;;;;;;;;9.20;94.80;;;;;;5074339;28;19928;-83
2022/11/08 09:43:51;;;;;;;;;;;9.60;94.50;;;;;;5099109;28;20010;-83
2022/11/08 09:46:40;;;;;;;;;;;9.90;93.10;;;;;;5092971;28;19923;-81
2022/11/08 09:49:09;;;;;;;;;;;10.10;91.60;;;;;;5089783;28;19957;-79
2022/11/08 09:51:35;;;;;;;;;;;10.00;90.50;;;;;;5098782;28;19917;-79
2022/11/08 09:54:03;;;;;;;;;;;10.00;93.00;;;;;;5098702;28;20432;-81
2022/11/08 09:56:36;;;;;;;;;;;10.10;92.30;;;;;;5076417;28;20015;-82
2022/11/08 09:59:14;;;;;;;;;;;10.00;91.90;;;;;;5099048;28;19930;-83
2022/11/08 10:01:41;;;;;;;;;;;9.80;91.10;;;;;;5103548;28;19916;-84
2022/11/08 10:04:25;;;;;;;;;;;10.00;93.10;;;;;;5090396;28;19920;-81
2022/11/08 10:06:50;;;;;;;;;;;10.10;90.90;;;;;;5100660;28;20651;-83
2022/11/08 10:09:23;;;;;;;;;;;10.10;92.40;;;;;;5100087;28;19926;-84
2022/11/08 10:12:07;;;;;;;;;;;10.20;90.70;;;;;;5092695;28;19962;-83
2022/11/08 10:14:33;;;;;;;;;;;9.90;89.70;;;;;;5098870;28;19965;-83
2022/11/08 10:17:01;;;;;;;;;;;9.90;90.00;;;;;;5093016;28;19923;-80
2022/11/08 10:19:39;;;;;;;;;;;10.00;91.10;;;;;;5092019;28;20359;-82
2022/11/08 10:22:10;;;;;;;;;;;10.00;90.60;;;;;;5103940;28;19916;-81
2022/11/08 10:24:55;;;;;;;;;;;10.10;89.90;;;;;;5097617;28;19916;-81
2022/11/08 10:27:29;;;;;;;;;;;10.10;89.50;;;;;;5093027;28;19919;-80
2022/11/08 10:29:57;;;;;;;;;;;10.30;90.50;;;;;;5105164;28;19951;-77
2022/11/08 10:32:23;;;;;;;;;;;10.30;89.50;;;;;;5093913;28;19923;-80
2022/11/08 10:34:51;;;;;;;;;;;10.30;88.90;;;;;;5096542;28;19949;-83
2022/11/08 10:37:17;;;;;;;;;;;10.20;90.00;;;;;;5102924;28;20295;-82
2022/11/08 10:39:53;;;;;;;;;;;10.40;89.00;;;;;;5087141;28;20554;-84
2022/11/08 10:42:32;;;;;;;;;;;10.40;88.40;;;;;;5085666;28;19922;-84
2022/11/08 10:44:58;;;;;;;;;;;10.70;87.40;;;;;;5101309;28;19920;-77
2022/11/08 10:47:25;;;;;;;;;;;10.90;89.00;;;;;;5096183;28;20393;-77
2022/11/08 10:49:53;;;;;;;;;;;11.00;86.00;;;;;;5096771;28;20268;-77
2022/11/08 10:52:23;;;;;;;;;;;11.00;86.10;;;;;;5098566;28;19916;-77
2022/11/08 10:54:53;;;;;;;;;;;11.00;85.00;;;;;;5093322;28;19920;-77
2022/11/08 10:57:30;;;;;;;;;;;11.00;85.30;;;;;;5095814;28;19923;-75
2022/11/08 10:59:56;;;;;;;;;;;11.10;86.20;;;;;;5102709;28;19916;-76
2022/11/08 11:02:31;;;;;;;;;;;11.30;86.60;;;;;;5098281;28;19923;-75
2022/11/08 11:05:12;;;;;;;;;;;11.30;85.40;;;;;;5096012;28;20347;-79
2022/11/08 11:07:38;;;;;;;;;;;11.50;84.20;;;;;;5100408;28;19919;-77
2022/11/08 11:10:22;;;;;;;;;;;11.50;83.90;;;;;;5097894;28;19920;-86
2022/11/08 11:12:49;;;;;;;;;;;11.60;82.50;;;;;;5099201;28;19927;-80
2022/11/08 11:15:15;;;;;;;;;;;11.80;81.60;;;;;;5098606;28;19919;-81
2022/11/08 11:17:43;;;;;;;;;;;11.80;81.10;;;;;;5102930;28;19920;-81
2022/11/08 11:20:18;;;;;;;;;;;11.90;82.20;;;;;;5101948;28;19942;-81
2022/11/08 11:22:44;;;;;;;;;;;11.90;79.80;;;;;;5103562;28;19915;-82
2022/11/08 11:25:14;;;;;;;;;;;12.20;82.50;;;;;;5097860;28;19923;-83
2022/11/08 11:27:41;;;;;;;;;;;12.20;79.90;;;;;;5102771;28;19922;-82
2022/11/08 11:30:10;;;;;;;;;;;12.20;79.20;;;;;;5107070;28;20003;-83
2022/11/08 11:32:35;;;;;;;;;;;12.30;80.60;;;;;;5098534;28;20143;-81
2022/11/08 11:35:07;;;;;;;;;;;12.40;78.20;;;;;;5099650;28;20602;-83
2022/11/08 11:37:39;;;;;;;;;;;12.30;77.80;;;;;;5105177;28;19920;-82
2022/11/08 11:40:06;;;;;;;;;;;12.30;78.70;;;;;;5100179;28;19916;-81
2022/11/08 11:42:40;;;;;;;;;;;12.30;79.10;;;;;;5095722;28;19962;-81
2022/11/08 11:45:25;;;;;;;;;;;12.30;78.40;;;;;;5101504;28;19927;-82
2022/11/08 11:47:52;;;;;;;;;;;12.30;76.50;;;;;;5097450;28;20006;-83
2022/11/08 11:50:23;;;;;;;;;;;12.50;78.30;;;;;;5092426;28;20367;-80
2022/11/08 11:52:49;;;;;;;;;;;12.60;78.00;;;;;;5099898;28;19920;-85
2022/11/08 11:55:15;;;;;;;;;;;12.80;79.30;;;;;;5083713;28;19916;-88
2022/11/08 11:58:04;;;;;;;;;;;12.90;76.60;;;;;;5084499;28;19959;-84
2022/11/08 12:00:29;;;;;;;;;;;13.00;77.40;;;;;;5083215;27;20557;-81
2022/11/08 12:03:13;;;;;;;;;;;13.10;75.90;;;;;;5097114;28;19912;-77
2022/11/08 12:06:00;;;;;;;;;;;13.20;76.60;;;;;;5096126;28;19918;-77
2022/11/08 12:08:28;;;;;;;;;;;13.30;74.90;;;;;;5096478;28;20011;-76
2022/11/08 12:11:10;;;;;;;;;;;13.50;73.60;;;;;;5092544;28;20385;-76
2022/11/08 12:13:41;;;;;;;;;;;13.60;72.60;;;;;;5098971;28;20589;-76
2022/11/08 12:16:12;;;;;;;;;;;13.90;72.30;;;;;;5099300;28;19924;-77
2022/11/08 12:18:38;;;;;;;;;;;14.00;71.70;;;;;;5095013;28;19919;-82
2022/11/08 12:21:11;;;;;;;;;;;13.80;70.50;;;;;;5105733;28;19918;-78
2022/11/08 12:23:37;;;;;;;;;;;13.90;71.70;;;;;;5094487;28;19918;-78
2022/11/08 12:26:05;;;;;;;;;;;13.60;70.40;;;;;;5093137;28;19919;-78
2022/11/08 12:28:39;;;;;;;;;;;13.50;71.10;;;;;;5100742;28;19950;-78
2022/11/08 12:31:18;;;;;;;;;;;13.60;73.20;;;;;;5102989;28;20543;-77
2022/11/08 12:33:54;;;;;;;;;;;13.70;72.20;;;;;;5093771;28;20372;-77
2022/11/08 12:36:22;;;;;;;;;;;13.60;72.10;;;;;;5097226;28;19947;-82
2022/11/08 12:39:06;;;;;;;;;;;13.60;72.20;;;;;;5092902;28;20642;-78
2022/11/08 12:41:35;;;;;;;;;;;13.60;73.10;;;;;;5092150;28;19916;-78
2022/11/08 12:44:00;;;;;;;;;;;13.60;71.60;;;;;;5103111;28;19919;-81
2022/11/08 12:46:27;;;;;;;;;;;13.40;71.60;;;;;;5099082;28;19932;-81
2022/11/08 12:48:55;;;;;;;;;;;13.30;72.10;;;;;;5087694;28;20030;-80
2022/11/08 12:51:46;;;;;;;;;;;13.20;71.40;;;;;;5096173;28;19916;-79
2022/11/08 12:54:12;;;;;;;;;;;13.20;72.30;;;;;;5099494;28;20335;-79
2022/11/08 12:56:44;;;;;;;;;;;13.30;73.10;;;;;;5092511;28;20006;-79
2022/11/08 12:59:33;;;;;;;;;;;13.30;72.30;;;;;;5095641;28;19982;-79
2022/11/08 13:02:02;;;;;;;;;;;13.50;73.10;;;;;;5082896;28;19920;-86
2022/11/08 13:04:39;;;;;;;;;;;13.50;73.10;;;;;;5092409;28;19970;-86
2022/11/08 13:07:25;;;;;;;;;;;13.30;72.20;;;;;;5102161;28;19916;-84
2022/11/08 13:09:50;;;;;;;;;;;13.60;72.00;;;;;;5091165;28;19912;-85
2022/11/08 13:12:35;;;;;;;;;;;13.60;71.40;;;;;;5092066;28;19919;-85
2022/11/08 13:15:00;;;;;;;;;;;13.80;71.70;;;;;;5101881;28;19923;-84
2022/11/08 13:17:27;;;;;;;;;;;13.70;71.10;;;;;;5095491;28;20374;-84
2022/11/08 13:19:52;;;;;;;;;;;13.60;70.40;;;;;;5091420;28;19939;-83
2022/11/08 13:22:30;;;;;;;;;;;13.80;72.40;;;;;;5099533;28;19912;-86
2022/11/08 13:25:00;;;;;;;;;;;13.70;70.10;;;;;;5088195;28;19919;-84
2022/11/08 13:27:35;;;;;;;;;;;13.50;69.40;;;;;;5094691;28;19923;-83
2022/11/08 13:30:23;;;;;;;;;;;13.70;70.10;;;;;;5097420;28;20410;-84
2022/11/08 13:32:52;;;;;;;;;;;13.50;71.00;;;;;;5087963;28;19924;-83
2022/11/08 13:35:40;;;;;;;;;;;13.60;70.70;;;;;;5094068;28;19912;-85
2022/11/08 13:38:26;;;;;;;;;;;13.60;70.20;;;;;;5092159;28;20402;-84
2022/11/08 13:40:52;;;;;;;;;;;13.60;69.50;;;;;;5092675;28;20003;-83
2022/11/08 13:43:24;;;;;;;;;;;13.50;69.20;;;;;;5105602;28;20022;-87
2022/11/08 13:45:50;;;;;;;;;;;13.30;69.80;;;;;;5091174;28;19958;-87
2022/11/08 13:48:35;;;;;;;;;;;13.10;69.80;;;;;;5097011;28;19973;-86
2022/11/08 13:51:24;;;;;;;;;;;13.10;70.30;;;;;;5103685;28;20302;-84
2022/11/08 13:53:53;;;;;;;;;;;13.20;70.90;;;;;;5097572;28;19912;-84
2022/11/08 13:56:22;;;;;;;;;;;13.40;70.50;;;;;;5092321;28;20292;-85
2022/11/08 13:58:47;;;;;;;;;;;13.40;69.60;;;;;;5097996;28;19920;-84
2022/11/08 14:01:22;;;;;;;;;;;13.40;69.60;;;;;;5075510;28;19919;-86
2022/11/08 14:03:50;;;;;;;;;;;13.40;71.50;;;;;;5088152;28;19916;-77
2022/11/08 14:06:25;;;;;;;;;;;13.20;70.20;;;;;;5104047;28;19919;-79
2022/11/08 14:08:57;;;;;;;;;;;13.00;69.10;;;;;;5096794;28;19923;-80
2022/11/08 14:11:22;;;;;;;;;;;12.90;70.60;;;;;;5091222;28;20302;-79
2022/11/08 14:13:57;;;;;;;;;;;12.80;70.00;;;;;;5104379;28;19911;-78
2022/11/08 14:16:27;;;;;;;;;;;12.90;70.40;;;;;;5092626;28;19998;-78
2022/11/08 14:18:52;;;;;;;;;;;12.90;71.80;;;;;;5098323;28;19915;-77
2022/11/08 14:21:18;;;;;;;;;;;12.90;71.50;;;;;;5099423;28;19916;-77
2022/11/08 14:23:46;;;;;;;;;;;12.90;71.60;;;;;;5098235;28;19923;-78
2022/11/08 14:26:13;;;;;;;;;;;13.00;72.40;;;;;;5091587;28;20333;-77
2022/11/08 14:28:40;;;;;;;;;;;13.00;70.30;;;;;;5095881;28;19959;-77
2022/11/08 14:31:20;;;;;;;;;;;13.10;71.50;;;;;;5093762;28;19928;-76
2022/11/08 14:33:45;;;;;;;;;;;13.20;71.60;;;;;;5090874;28;19923;-76
2022/11/08 14:36:15;;;;;;;;;;;12.90;72.60;;;;;;5103913;28;19920;-77
2022/11/08 14:39:02;;;;;;;;;;;13.10;70.90;;;;;;5102821;28;19916;-76
2022/11/08 14:41:28;;;;;;;;;;;13.10;70.60;;;;;;5094168;28;19916;-77
2022/11/08 14:43:55;;;;;;;;;;;13.30;72.00;;;;;;5105305;28;19951;-77
2022/11/08 14:46:23;;;;;;;;;;;13.30;69.70;;;;;;5102665;28;19974;-77
2022/11/08 14:48:53;;;;;;;;;;;13.20;70.90;;;;;;5098303;28;20542;-78
2022/11/08 14:51:19;;;;;;;;;;;13.20;71.60;;;;;;5093571;28;19959;-78